CYGR

Îles-de-la-Madeleine Airport

Îles-de-la-Madeleine, Quebec, Canada
METAR CYGR 211300Z 16010KT 20SM BKN270 20/15 A3027 RMK CI6 SLP252 DENSITY ALT 300FT
Observed Flight Rules
Jul-21 @ 13:00 UTC (54 minutes ago) Visual Flight Rules
Wind Visibility Clouds
160° at 10 knots 20 miles
  • Broken at 27,000' AGL
Temperatures Readings
Current 20°C / 68°F
Dewpoint 15°C / 59°F
Humidity 73%
Altimeter 30.27" Hg
Pressure 1025.2 hPa
Elevation 10
METAR CYGR 211300Z 16010KT 20SM BKN270 20/15 A3027 RMK CI6 SLP252 DENSITY ALT 300FT
Observed Flight Rules
Jul-21 @ 13:00 UTC
(54 minutes ago)
VFR
Wind Visibility
160° at 10 knots 20 miles
Clouds
  • Broken at 27,000' AGL
Temperature Dewpoint
20°C / 68°F 15°C / 59°F
Humidity Altimeter Pressure
73% 30.27" Hg 1025.2 hPa